sensor_id;sensor_type;location;lat;lon;timestamp;pressure;altitude;pressure_sealevel;temperature;humidity
12349;BME280;5974;42.710;27.258;2023-08-01T00:00:28;99618.84;;;22.15;100.00
12349;BME280;5974;42.710;27.258;2023-08-01T00:02:55;99621.97;;;22.10;100.00
12349;BME280;5974;42.710;27.258;2023-08-01T00:05:22;99620.81;;;22.13;100.00
12349;BME280;5974;42.710;27.258;2023-08-01T00:07:51;99607.88;;;21.81;100.00
12349;BME280;5974;42.710;27.258;2023-08-01T00:10:18;99617.56;;;21.82;100.00
12349;BME280;5974;42.710;27.258;2023-08-01T00:12:45;99623.81;;;22.00;100.00
12349;BME280;5974;42.710;27.258;2023-08-01T00:15:12;99616.00;;;21.99;100.00
12349;BME280;5974;42.710;27.258;2023-08-01T00:17:39;99621.03;;;22.02;100.00
12349;BME280;5974;42.710;27.258;2023-08-01T00:20:07;99618.50;;;22.00;100.00
12349;BME280;5974;42.710;27.258;2023-08-01T00:22:34;99622.63;;;21.76;100.00
12349;BME280;5974;42.710;27.258;2023-08-01T00:25:02;99622.31;;;21.23;100.00
12349;BME280;5974;42.710;27.258;2023-08-01T00:27:29;99621.00;;;21.55;100.00
12349;BME280;5974;42.710;27.258;2023-08-01T00:29:57;99621.59;;;20.92;100.00
12349;BME280;5974;42.710;27.258;2023-08-01T00:32:24;99624.66;;;20.68;100.00
12349;BME280;5974;42.710;27.258;2023-08-01T00:34:51;99624.81;;;20.67;100.00
12349;BME280;5974;42.710;27.258;2023-08-01T00:37:18;99621.69;;;20.52;100.00
12349;BME280;5974;42.710;27.258;2023-08-01T00:39:45;99615.03;;;21.05;100.00
12349;BME280;5974;42.710;27.258;2023-08-01T00:42:13;99611.16;;;21.19;100.00
12349;BME280;5974;42.710;27.258;2023-08-01T00:44:40;99615.63;;;21.19;100.00
12349;BME280;5974;42.710;27.258;2023-08-01T00:47:06;99607.34;;;21.31;100.00
12349;BME280;5974;42.710;27.258;2023-08-01T00:49:34;99603.00;;;20.63;100.00
12349;BME280;5974;42.710;27.258;2023-08-01T00:52:01;99612.63;;;20.05;100.00
12349;BME280;5974;42.710;27.258;2023-08-01T00:54:28;99589.72;;;20.14;100.00
12349;BME280;5974;42.710;27.258;2023-08-01T00:57:00;99603.97;;;20.72;100.00
12349;BME280;5974;42.710;27.258;2023-08-01T00:59:29;99603.56;;;20.76;100.00
12349;BME280;5974;42.710;27.258;2023-08-01T01:01:56;99602.88;;;20.84;100.00
12349;BME280;5974;42.710;27.258;2023-08-01T01:04:23;99608.69;;;20.30;100.00
12349;BME280;5974;42.710;27.258;2023-08-01T01:06:52;99583.50;;;20.34;100.00
12349;BME280;5974;42.710;27.258;2023-08-01T01:09:23;99601.69;;;20.29;100.00
12349;BME280;5974;42.710;27.258;2023-08-01T01:11:50;99598.09;;;20.59;100.00
12349;BME280;5974;42.710;27.258;2023-08-01T01:14:17;99607.06;;;20.58;100.00
12349;BME280;5974;42.710;27.258;2023-08-01T01:16:45;99608.41;;;20.52;100.00
12349;BME280;5974;42.710;27.258;2023-08-01T01:19:12;99610.78;;;20.36;100.00
12349;BME280;5974;42.710;27.258;2023-08-01T01:21:42;99603.66;;;20.36;100.00
12349;BME280;5974;42.710;27.258;2023-08-01T01:24:11;99601.13;;;20.35;100.00
12349;BME280;5974;42.710;27.258;2023-08-01T01:26:40;99593.16;;;20.35;100.00
12349;BME280;5974;42.710;27.258;2023-08-01T01:29:08;99557.56;;;20.07;100.00
12349;BME280;5974;42.710;27.258;2023-08-01T01:31:36;99587.78;;;20.16;100.00
12349;BME280;5974;42.710;27.258;2023-08-01T01:34:03;99597.16;;;20.20;100.00
12349;BME280;5974;42.710;27.258;2023-08-01T01:36:30;99601.00;;;20.06;100.00
12349;BME280;5974;42.710;27.258;2023-08-01T01:38:59;99599.63;;;20.02;100.00
12349;BME280;5974;42.710;27.258;2023-08-01T01:41:26;99613.28;;;19.97;100.00
12349;BME280;5974;42.710;27.258;2023-08-01T01:43:52;99594.13;;;19.94;100.00
12349;BME280;5974;42.710;27.258;2023-08-01T01:46:19;99568.03;;;19.69;100.00
12349;BME280;5974;42.710;27.258;2023-08-01T01:48:46;99610.19;;;19.92;100.00
12349;BME280;5974;42.710;27.258;2023-08-01T01:51:13;99611.84;;;19.93;100.00
12349;BME280;5974;42.710;27.258;2023-08-01T01:53:40;99614.97;;;19.98;100.00
12349;BME280;5974;42.710;27.258;2023-08-01T01:56:09;99618.63;;;20.07;100.00
12349;BME280;5974;42.710;27.258;2023-08-01T01:58:36;99616.38;;;20.02;100.00
12349;BME280;5974;42.710;27.258;2023-08-01T02:01:03;99621.69;;;19.72;100.00
12349;BME280;5974;42.710;27.258;2023-08-01T02:03:29;99627.97;;;19.30;100.00
12349;BME280;5974;42.710;27.258;2023-08-01T02:05:56;99627.63;;;19.23;100.00
12349;BME280;5974;42.710;27.258;2023-08-01T02:08:23;99639.59;;;19.50;100.00
12349;BME280;5974;42.710;27.258;2023-08-01T02:10:50;99631.88;;;19.46;100.00
12349;BME280;5974;42.710;27.258;2023-08-01T02:13:18;99631.47;;;19.72;100.00
12349;BME280;5974;42.710;27.258;2023-08-01T02:15:45;99628.72;;;19.83;100.00
12349;BME280;5974;42.710;27.258;2023-08-01T02:18:12;99630.28;;;19.85;100.00
12349;BME280;5974;42.710;27.258;2023-08-01T02:20:39;99628.69;;;19.73;100.00
12349;BME280;5974;42.710;27.258;2023-08-01T02:23:05;99625.53;;;19.59;100.00
12349;BME280;5974;42.710;27.258;2023-08-01T02:25:38;99630.09;;;19.77;100.00
12349;BME280;5974;42.710;27.258;2023-08-01T02:28:05;99633.78;;;19.86;100.00
12349;BME280;5974;42.710;27.258;2023-08-01T02:30:33;99644.69;;;19.92;100.00
12349;BME280;5974;42.710;27.258;2023-08-01T02:33:00;99643.44;;;19.96;100.00
12349;BME280;5974;42.710;27.258;2023-08-01T02:35:27;99601.88;;;19.76;100.00
12349;BME280;5974;42.710;27.258;2023-08-01T02:37:55;99630.75;;;20.00;100.00
12349;BME280;5974;42.710;27.258;2023-08-01T02:40:22;99650.53;;;20.17;100.00
12349;BME280;5974;42.710;27.258;2023-08-01T02:42:49;99637.88;;;20.30;100.00
12349;BME280;5974;42.710;27.258;2023-08-01T02:45:16;99646.97;;;20.37;100.00
12349;BME280;5974;42.710;27.258;2023-08-01T02:47:44;99645.16;;;20.37;100.00
12349;BME280;5974;42.710;27.258;2023-08-01T02:50:11;99647.03;;;20.56;100.00
12349;BME280;5974;42.710;27.258;2023-08-01T02:52:37;99645.06;;;20.68;100.00
12349;BME280;5974;42.710;27.258;2023-08-01T02:55:06;99646.91;;;20.77;100.00
12349;BME280;5974;42.710;27.258;2023-08-01T02:57:33;99649.88;;;20.93;100.00
12349;BME280;5974;42.710;27.258;2023-08-01T02:59:59;99648.63;;;21.06;100.00
12349;BME280;5974;42.710;27.258;2023-08-01T03:02:30;99642.91;;;21.21;100.00
12349;BME280;5974;42.710;27.258;2023-08-01T03:04:58;99634.53;;;21.16;100.00
12349;BME280;5974;42.710;27.258;2023-08-01T03:07:25;99636.59;;;21.22;100.00
12349;BME280;5974;42.710;27.258;2023-08-01T03:09:52;99599.09;;;20.86;100.00
12349;BME280;5974;42.710;27.258;2023-08-01T03:12:18;99635.06;;;21.19;100.00
12349;BME280;5974;42.710;27.258;2023-08-01T03:14:45;99638.97;;;21.25;100.00
12349;BME280;5974;42.710;27.258;2023-08-01T03:17:13;99637.69;;;21.29;100.00
12349;BME280;5974;42.710;27.258;2023-08-01T03:19:40;99636.59;;;21.41;100.00
12349;BME280;5974;42.710;27.258;2023-08-01T03:22:08;99641.19;;;21.39;100.00
12349;BME280;5974;42.710;27.258;2023-08-01T03:24:36;99640.06;;;21.51;100.00
12349;BME280;5974;42.710;27.258;2023-08-01T03:27:03;99634.13;;;21.67;100.00
12349;BME280;5974;42.710;27.258;2023-08-01T03:29:30;99633.78;;;21.42;100.00
12349;BME280;5974;42.710;27.258;2023-08-01T03:31:57;99637.63;;;21.67;100.00
12349;BME280;5974;42.710;27.258;2023-08-01T03:34:24;99636.72;;;21.49;100.00
12349;BME280;5974;42.710;27.258;2023-08-01T03:36:52;99642.56;;;21.62;100.00
12349;BME280;5974;42.710;27.258;2023-08-01T03:39:20;99636.06;;;21.84;100.00
12349;BME280;5974;42.710;27.258;2023-08-01T03:41:47;99636.59;;;21.97;100.00
12349;BME280;5974;42.710;27.258;2023-08-01T03:44:14;99642.66;;;21.89;100.00
12349;BME280;5974;42.710;27.258;2023-08-01T03:46:42;99654.16;;;21.71;100.00
12349;BME280;5974;42.710;27.258;2023-08-01T03:49:09;99640.97;;;21.79;100.00
12349;BME280;5974;42.710;27.258;2023-08-01T03:51:36;99646.28;;;21.88;100.00
12349;BME280;5974;42.710;27.258;2023-08-01T03:54:03;99651.16;;;22.02;100.00
12349;BME280;5974;42.710;27.258;2023-08-01T03:56:31;99645.75;;;22.12;100.00
12349;BME280;5974;42.710;27.258;2023-08-01T03:58:58;99647.13;;;21.89;100.00
12349;BME280;5974;42.710;27.258;2023-08-01T04:01:25;99647.75;;;22.10;100.00
12349;BME280;5974;42.710;27.258;2023-08-01T04:03:51;99654.78;;;22.56;100.00
12349;BME280;5974;42.710;27.258;2023-08-01T04:06:18;99647.19;;;22.34;100.00
12349;BME280;5974;42.710;27.258;2023-08-01T04:08:45;99654.19;;;22.62;100.00
12349;BME280;5974;42.710;27.258;2023-08-01T04:11:12;99653.25;;;22.98;100.00
12349;BME280;5974;42.710;27.258;2023-08-01T04:13:40;99612.03;;;23.10;100.00
12349;BME280;5974;42.710;27.258;2023-08-01T04:16:07;99652.66;;;23.22;100.00
12349;BME280;5974;42.710;27.258;2023-08-01T04:18:34;99614.13;;;23.94;100.00
12349;BME280;5974;42.710;27.258;2023-08-01T04:21:02;99630.28;;;27.28;100.00
12349;BME280;5974;42.710;27.258;2023-08-01T04:23:29;99615.81;;;29.61;100.00
12349;BME280;5974;42.710;27.258;2023-08-01T04:25:55;99613.63;;;31.52;100.00
12349;BME280;5974;42.710;27.258;2023-08-01T04:28:23;99611.22;;;33.04;92.49
12349;BME280;5974;42.710;27.258;2023-08-01T04:30:52;99618.31;;;35.00;80.14
12349;BME280;5974;42.710;27.258;2023-08-01T04:33:19;99624.84;;;35.63;70.74
12349;BME280;5974;42.710;27.258;2023-08-01T04:35:46;99617.91;;;36.99;65.53
12349;BME280;5974;42.710;27.258;2023-08-01T04:38:14;99611.31;;;37.94;60.60
12349;BME280;5974;42.710;27.258;2023-08-01T04:40:41;99625.97;;;38.75;57.89
12349;BME280;5974;42.710;27.258;2023-08-01T04:43:09;99635.28;;;40.01;53.84
12349;BME280;5974;42.710;27.258;2023-08-01T04:45:36;99634.81;;;40.92;49.64
12349;BME280;5974;42.710;27.258;2023-08-01T04:48:04;99634.88;;;38.39;51.87
12349;BME280;5974;42.710;27.258;2023-08-01T04:50:31;99643.38;;;39.18;51.57
12349;BME280;5974;42.710;27.258;2023-08-01T04:52:58;99632.03;;;38.34;52.68
12349;BME280;5974;42.710;27.258;2023-08-01T04:55:25;99643.34;;;38.21;53.20
12349;BME280;5974;42.710;27.258;2023-08-01T04:57:52;99642.53;;;40.23;50.37
12349;BME280;5974;42.710;27.258;2023-08-01T05:00:19;99640.84;;;40.84;46.90
12349;BME280;5974;42.710;27.258;2023-08-01T05:02:46;99638.75;;;41.56;45.57
12349;BME280;5974;42.710;27.258;2023-08-01T05:05:14;99649.19;;;40.37;46.31
12349;BME280;5974;42.710;27.258;2023-08-01T05:07:41;99640.19;;;39.26;48.32
12349;BME280;5974;42.710;27.258;2023-08-01T05:10:09;99644.06;;;38.76;49.89
12349;BME280;5974;42.710;27.258;2023-08-01T05:12:36;99646.97;;;38.05;50.65
12349;BME280;5974;42.710;27.258;2023-08-01T05:15:04;99646.66;;;38.88;49.40
12349;BME280;5974;42.710;27.258;2023-08-01T05:17:31;99654.75;;;40.52;47.32
12349;BME280;5974;42.710;27.258;2023-08-01T05:19:57;99651.66;;;41.66;45.37
12349;BME280;5974;42.710;27.258;2023-08-01T05:22:26;99643.53;;;40.06;46.08
12349;BME280;5974;42.710;27.258;2023-08-01T05:24:52;99649.22;;;38.73;48.34
12349;BME280;5974;42.710;27.258;2023-08-01T05:27:19;99653.22;;;42.12;44.42
12349;BME280;5974;42.710;27.258;2023-08-01T05:29:46;99653.94;;;40.04;45.80
12349;BME280;5974;42.710;27.258;2023-08-01T05:32:13;99658.47;;;40.26;45.86
12349;BME280;5974;42.710;27.258;2023-08-01T05:34:40;99651.34;;;37.72;49.38
12349;BME280;5974;42.710;27.258;2023-08-01T05:37:07;99652.84;;;37.96;50.57
12349;BME280;5974;42.710;27.258;2023-08-01T05:39:35;99658.16;;;39.43;47.05
12349;BME280;5974;42.710;27.258;2023-08-01T05:42:02;99654.38;;;39.49;46.84
12349;BME280;5974;42.710;27.258;2023-08-01T05:44:33;99658.38;;;39.37;46.61
12349;BME280;5974;42.710;27.258;2023-08-01T05:47:00;99661.31;;;37.62;49.11
12349;BME280;5974;42.710;27.258;2023-08-01T05:49:27;99655.72;;;35.69;52.70
12349;BME280;5974;42.710;27.258;2023-08-01T05:51:55;99649.59;;;35.32;53.41
12349;BME280;5974;42.710;27.258;2023-08-01T05:54:22;99654.72;;;34.69;54.65
12349;BME280;5974;42.710;27.258;2023-08-01T05:56:50;99649.78;;;34.05;57.30
12349;BME280;5974;42.710;27.258;2023-08-01T05:59:17;99642.03;;;34.93;56.33
12349;BME280;5974;42.710;27.258;2023-08-01T06:01:45;99647.53;;;36.27;53.75
12349;BME280;5974;42.710;27.258;2023-08-01T06:04:12;99648.09;;;35.48;55.08
12349;BME280;5974;42.710;27.258;2023-08-01T06:06:39;99647.59;;;34.50;56.42
12349;BME280;5974;42.710;27.258;2023-08-01T06:09:06;99643.34;;;34.42;56.74
12349;BME280;5974;42.710;27.258;2023-08-01T06:11:32;99643.16;;;33.51;57.42
12349;BME280;5974;42.710;27.258;2023-08-01T06:14:01;99638.53;;;33.83;58.11
12349;BME280;5974;42.710;27.258;2023-08-01T06:16:28;99639.34;;;34.26;56.87
12349;BME280;5974;42.710;27.258;2023-08-01T06:18:55;99640.16;;;34.93;55.76
12349;BME280;5974;42.710;27.258;2023-08-01T06:21:23;99636.53;;;35.75;53.56
12349;BME280;5974;42.710;27.258;2023-08-01T06:23:49;99633.34;;;37.71;50.96
12349;BME280;5974;42.710;27.258;2023-08-01T06:26:16;99633.69;;;38.13;48.87
12349;BME280;5974;42.710;27.258;2023-08-01T06:28:43;99637.13;;;37.87;48.73
12349;BME280;5974;42.710;27.258;2023-08-01T06:31:11;99637.66;;;38.92;46.33
12349;BME280;5974;42.710;27.258;2023-08-01T06:33:38;99639.91;;;38.30;47.29
12349;BME280;5974;42.710;27.258;2023-08-01T06:36:05;99637.13;;;37.37;49.13
12349;BME280;5974;42.710;27.258;2023-08-01T06:38:32;99628.88;;;36.87;49.92
12349;BME280;5974;42.710;27.258;2023-08-01T06:40:59;99630.03;;;34.52;51.97
12349;BME280;5974;42.710;27.258;2023-08-01T06:43:26;99632.09;;;34.87;52.53
12349;BME280;5974;42.710;27.258;2023-08-01T06:45:53;99635.91;;;35.50;50.75
12349;BME280;5974;42.710;27.258;2023-08-01T06:48:21;99637.06;;;34.90;52.19
12349;BME280;5974;42.710;27.258;2023-08-01T06:50:48;99627.66;;;35.04;51.53
12349;BME280;5974;42.710;27.258;2023-08-01T06:53:15;99624.09;;;36.94;48.81
12349;BME280;5974;42.710;27.258;2023-08-01T06:55:42;99637.03;;;36.07;48.50
12349;BME280;5974;42.710;27.258;2023-08-01T06:58:09;99628.66;;;36.77;48.47
12349;BME280;5974;42.710;27.258;2023-08-01T07:00:36;99581.69;;;36.58;48.35
12349;BME280;5974;42.710;27.258;2023-08-01T07:03:03;99612.56;;;38.09;46.46
12349;BME280;5974;42.710;27.258;2023-08-01T07:05:31;99615.25;;;39.22;45.36
12349;BME280;5974;42.710;27.258;2023-08-01T07:07:58;99616.31;;;39.21;43.47
12349;BME280;5974;42.710;27.258;2023-08-01T07:10:25;99624.56;;;39.90;42.45
12349;BME280;5974;42.710;27.258;2023-08-01T07:12:51;99623.53;;;40.63;41.68
12349;BME280;5974;42.710;27.258;2023-08-01T07:15:18;99621.63;;;39.65;41.81
12349;BME280;5974;42.710;27.258;2023-08-01T07:17:45;99621.09;;;39.31;42.36
12349;BME280;5974;42.710;27.258;2023-08-01T07:20:12;99617.47;;;37.68;44.71
12349;BME280;5974;42.710;27.258;2023-08-01T07:22:40;99617.63;;;39.14;43.80
12349;BME280;5974;42.710;27.258;2023-08-01T07:25:08;99615.75;;;38.39;43.53
12349;BME280;5974;42.710;27.258;2023-08-01T07:27:35;99609.50;;;36.72;44.19
12349;BME280;5974;42.710;27.258;2023-08-01T07:30:03;99618.81;;;37.87;43.31
12349;BME280;5974;42.710;27.258;2023-08-01T07:32:30;99602.09;;;38.22;42.37
12349;BME280;5974;42.710;27.258;2023-08-01T07:34:57;99619.75;;;35.78;45.69
12349;BME280;5974;42.710;27.258;2023-08-01T07:37:24;99611.31;;;35.57;46.77
12349;BME280;5974;42.710;27.258;2023-08-01T07:39:55;99615.09;;;35.90;46.76
12349;BME280;5974;42.710;27.258;2023-08-01T07:42:22;99599.66;;;36.99;45.72
12349;BME280;5974;42.710;27.258;2023-08-01T07:44:49;99612.56;;;36.35;45.71
12349;BME280;5974;42.710;27.258;2023-08-01T07:47:15;99609.59;;;36.77;44.57
12349;BME280;5974;42.710;27.258;2023-08-01T07:49:42;99615.75;;;37.62;43.33
12349;BME280;5974;42.710;27.258;2023-08-01T07:52:09;99620.16;;;37.85;42.58
12349;BME280;5974;42.710;27.258;2023-08-01T07:54:36;99616.31;;;38.03;43.26
12349;BME280;5974;42.710;27.258;2023-08-01T07:57:05;99613.22;;;37.11;43.69
12349;BME280;5974;42.710;27.258;2023-08-01T07:59:32;99615.91;;;35.21;46.35
12349;BME280;5974;42.710;27.258;2023-08-01T08:01:59;99615.22;;;33.75;49.65
12349;BME280;5974;42.710;27.258;2023-08-01T08:04:26;99604.41;;;34.12;48.78
12349;BME280;5974;42.710;27.258;2023-08-01T08:06:53;99607.72;;;33.28;51.11
12349;BME280;5974;42.710;27.258;2023-08-01T08:09:20;99605.22;;;32.64;52.34
12349;BME280;5974;42.710;27.258;2023-08-01T08:11:48;99602.75;;;33.25;50.64
12349;BME280;5974;42.710;27.258;2023-08-01T08:14:17;99603.53;;;33.25;51.49
12349;BME280;5974;42.710;27.258;2023-08-01T08:16:46;99599.13;;;33.81;50.88
12349;BME280;5974;42.710;27.258;2023-08-01T08:19:12;99602.25;;;32.72;52.69
12349;BME280;5974;42.710;27.258;2023-08-01T08:21:39;99579.06;;;31.81;53.85
12349;BME280;5974;42.710;27.258;2023-08-01T08:24:06;99608.66;;;31.49;56.36
12349;BME280;5974;42.710;27.258;2023-08-01T08:26:33;99606.53;;;31.19;56.50
12349;BME280;5974;42.710;27.258;2023-08-01T08:29:02;99600.66;;;31.87;55.85
12349;BME280;5974;42.710;27.258;2023-08-01T08:31:31;99597.59;;;31.77;57.27
12349;BME280;5974;42.710;27.258;2023-08-01T08:33:58;99601.69;;;32.06;55.77
12349;BME280;5974;42.710;27.258;2023-08-01T08:36:25;99603.31;;;32.20;55.89
12349;BME280;5974;42.710;27.258;2023-08-01T08:38:52;99562.28;;;31.13;55.99
12349;BME280;5974;42.710;27.258;2023-08-01T08:41:21;99597.81;;;31.36;55.20
12349;BME280;5974;42.710;27.258;2023-08-01T08:43:48;99597.38;;;31.00;55.32
12349;BME280;5974;42.710;27.258;2023-08-01T08:46:16;99594.88;;;31.84;53.77
12349;BME280;5974;42.710;27.258;2023-08-01T08:48:45;99591.69;;;32.00;54.96
12349;BME280;5974;42.710;27.258;2023-08-01T08:51:12;99593.03;;;31.71;55.74
12349;BME280;5974;42.710;27.258;2023-08-01T08:53:40;99600.91;;;31.27;55.00
12349;BME280;5974;42.710;27.258;2023-08-01T08:56:08;99595.91;;;31.69;54.61
12349;BME280;5974;42.710;27.258;2023-08-01T08:58:36;99584.31;;;32.33;52.94
12349;BME280;5974;42.710;27.258;2023-08-01T09:01:05;99589.47;;;31.71;52.48
12349;BME280;5974;42.710;27.258;2023-08-01T09:03:32;99596.72;;;31.90;52.53
12349;BME280;5974;42.710;27.258;2023-08-01T09:06:04;99588.25;;;31.60;50.87
12349;BME280;5974;42.710;27.258;2023-08-01T09:08:36;99597.25;;;32.18;49.71
12349;BME280;5974;42.710;27.258;2023-08-01T09:11:05;99587.66;;;32.29;49.59
12349;BME280;5974;42.710;27.258;2023-08-01T09:13:32;99587.81;;;32.40;47.72
12349;BME280;5974;42.710;27.258;2023-08-01T09:16:01;99575.94;;;32.41;46.02
12349;BME280;5974;42.710;27.258;2023-08-01T09:18:28;99574.34;;;33.28;48.57
12349;BME280;5974;42.710;27.258;2023-08-01T09:20:56;99573.16;;;34.03;46.61
12349;BME280;5974;42.710;27.258;2023-08-01T09:23:29;99568.66;;;34.15;47.40
12349;BME280;5974;42.710;27.258;2023-08-01T09:25:56;99568.97;;;34.73;45.99
12349;BME280;5974;42.710;27.258;2023-08-01T09:28:23;99562.53;;;34.67;46.89
12349;BME280;5974;42.710;27.258;2023-08-01T09:30:53;99563.25;;;34.15;48.34
12349;BME280;5974;42.710;27.258;2023-08-01T09:33:21;99566.31;;;33.64;49.00
12349;BME280;5974;42.710;27.258;2023-08-01T09:35:49;99552.88;;;34.42;46.60
12349;BME280;5974;42.710;27.258;2023-08-01T09:38:16;99563.25;;;34.33;46.86
12349;BME280;5974;42.710;27.258;2023-08-01T09:40:45;99560.56;;;33.29;48.49
12349;BME280;5974;42.710;27.258;2023-08-01T09:43:13;99553.13;;;32.93;48.31
12349;BME280;5974;42.710;27.258;2023-08-01T09:45:49;99548.63;;;32.81;46.83
12349;BME280;5974;42.710;27.258;2023-08-01T09:48:25;99547.56;;;32.50;47.36
12349;BME280;5974;42.710;27.258;2023-08-01T09:50:52;99543.13;;;32.94;46.79
12349;BME280;5974;42.710;27.258;2023-08-01T09:53:19;99539.06;;;32.78;48.93
12349;BME280;5974;42.710;27.258;2023-08-01T09:55:49;99537.25;;;33.46;49.06
12349;BME280;5974;42.710;27.258;2023-08-01T09:58:21;99534.06;;;33.06;49.37
12349;BME280;5974;42.710;27.258;2023-08-01T10:00:49;99533.94;;;33.44;49.53
12349;BME280;5974;42.710;27.258;2023-08-01T10:03:16;99528.03;;;33.29;49.13
12349;BME280;5974;42.710;27.258;2023-08-01T10:05:44;99526.31;;;34.44;47.92
12349;BME280;5974;42.710;27.258;2023-08-01T10:08:12;99520.72;;;34.27;47.10
12349;BME280;5974;42.710;27.258;2023-08-01T10:10:40;99519.63;;;34.28;48.06
12349;BME280;5974;42.710;27.258;2023-08-01T10:13:13;99522.44;;;34.93;47.32
12349;BME280;5974;42.710;27.258;2023-08-01T10:15:40;99506.63;;;34.48;46.81
12349;BME280;5974;42.710;27.258;2023-08-01T10:18:08;99510.59;;;34.64;46.31
12349;BME280;5974;42.710;27.258;2023-08-01T10:20:36;99522.69;;;35.03;44.51
12349;BME280;5974;42.710;27.258;2023-08-01T10:23:05;99516.50;;;34.72;44.63
12349;BME280;5974;42.710;27.258;2023-08-01T10:25:32;99518.38;;;33.94;45.28
12349;BME280;5974;42.710;27.258;2023-08-01T10:28:00;99521.53;;;33.91;45.53
12349;BME280;5974;42.710;27.258;2023-08-01T10:30:29;99509.88;;;33.05;46.94
12349;BME280;5974;42.710;27.258;2023-08-01T10:32:58;99513.94;;;33.20;46.66
12349;BME280;5974;42.710;27.258;2023-08-01T10:35:34;99504.28;;;33.49;48.58
12349;BME280;5974;42.710;27.258;2023-08-01T10:38:05;99498.13;;;33.60;48.04
12349;BME280;5974;42.710;27.258;2023-08-01T10:40:34;99492.53;;;34.10;46.43
12349;BME280;5974;42.710;27.258;2023-08-01T10:43:01;99503.38;;;33.55;46.43
12349;BME280;5974;42.710;27.258;2023-08-01T10:45:29;99487.94;;;32.63;47.82
12349;BME280;5974;42.710;27.258;2023-08-01T10:48:07;99490.44;;;32.58;48.26
12349;BME280;5974;42.710;27.258;2023-08-01T10:50:34;99482.84;;;32.73;51.61
12349;BME280;5974;42.710;27.258;2023-08-01T10:53:06;99481.38;;;33.63;47.30
12349;BME280;5974;42.710;27.258;2023-08-01T10:55:41;99482.84;;;32.98;47.29
12349;BME280;5974;42.710;27.258;2023-08-01T10:58:08;99470.66;;;33.07;47.90
12349;BME280;5974;42.710;27.258;2023-08-01T11:00:36;99469.41;;;32.60;48.62
12349;BME280;5974;42.710;27.258;2023-08-01T11:03:03;99461.50;;;32.59;49.28
12349;BME280;5974;42.710;27.258;2023-08-01T11:05:30;99457.31;;;32.63;50.22
12349;BME280;5974;42.710;27.258;2023-08-01T11:07:59;99438.56;;;32.61;50.32
12349;BME280;5974;42.710;27.258;2023-08-01T11:10:27;99464.22;;;32.84;50.01
12349;BME280;5974;42.710;27.258;2023-08-01T11:12:54;99463.72;;;33.91;47.10
12349;BME280;5974;42.710;27.258;2023-08-01T11:15:21;99453.72;;;34.51;46.53
12349;BME280;5974;42.710;27.258;2023-08-01T11:17:51;99440.44;;;34.84;46.05
12349;BME280;5974;42.710;27.258;2023-08-01T11:20:20;99448.22;;;35.62;43.53
12349;BME280;5974;42.710;27.258;2023-08-01T11:22:53;99441.13;;;35.61;44.21
12349;BME280;5974;42.710;27.258;2023-08-01T11:25:32;99433.06;;;35.54;45.28
12349;BME280;5974;42.710;27.258;2023-08-01T11:28:03;99427.69;;;36.56;43.55
12349;BME280;5974;42.710;27.258;2023-08-01T11:30:31;99430.59;;;36.99;41.63
12349;BME280;5974;42.710;27.258;2023-08-01T11:32:59;99433.84;;;36.34;41.51
12349;BME280;5974;42.710;27.258;2023-08-01T11:35:28;99442.44;;;36.26;43.02
12349;BME280;5974;42.710;27.258;2023-08-01T11:37:55;99427.59;;;36.51;40.94
12349;BME280;5974;42.710;27.258;2023-08-01T11:40:24;99407.03;;;36.43;41.27
12349;BME280;5974;42.710;27.258;2023-08-01T11:42:56;99429.75;;;35.52;42.35
12349;BME280;5974;42.710;27.258;2023-08-01T11:45:23;99431.81;;;34.99;43.40
12349;BME280;5974;42.710;27.258;2023-08-01T11:47:50;99421.22;;;33.85;46.03
12349;BME280;5974;42.710;27.258;2023-08-01T11:50:22;99419.81;;;34.12;45.18
12349;BME280;5974;42.710;27.258;2023-08-01T11:52:49;99420.72;;;33.76;45.85
12349;BME280;5974;42.710;27.258;2023-08-01T11:55:25;99414.41;;;33.94;45.73
12349;BME280;5974;42.710;27.258;2023-08-01T11:57:56;99413.41;;;33.76;46.24
12349;BME280;5974;42.710;27.258;2023-08-01T12:00:25;99408.44;;;33.73;46.00
12349;BME280;5974;42.710;27.258;2023-08-01T12:03:03;99405.44;;;33.09;47.20
12349;BME280;5974;42.710;27.258;2023-08-01T12:05:31;99406.03;;;33.11;45.92
12349;BME280;5974;42.710;27.258;2023-08-01T12:08:08;99402.56;;;33.04;45.86
12349;BME280;5974;42.710;27.258;2023-08-01T12:10:38;99396.94;;;33.23;46.92
12349;BME280;5974;42.710;27.258;2023-08-01T12:13:05;99397.34;;;34.23;44.62
12349;BME280;5974;42.710;27.258;2023-08-01T12:15:32;99391.81;;;34.29;44.85
12349;BME280;5974;42.710;27.258;2023-08-01T12:17:59;99391.72;;;33.76;44.12
12349;BME280;5974;42.710;27.258;2023-08-01T12:20:26;99384.34;;;34.25;45.15
12349;BME280;5974;42.710;27.258;2023-08-01T12:22:54;99384.88;;;34.57;47.77
12349;BME280;5974;42.710;27.258;2023-08-01T12:25:21;99380.13;;;33.99;49.31
12349;BME280;5974;42.710;27.258;2023-08-01T12:27:48;99375.31;;;33.17;52.28
12349;BME280;5974;42.710;27.258;2023-08-01T12:30:14;99368.63;;;33.38;52.44
12349;BME280;5974;42.710;27.258;2023-08-01T12:32:41;99376.38;;;32.98;52.40
12349;BME280;5974;42.710;27.258;2023-08-01T12:35:09;99367.63;;;33.14;54.57
12349;BME280;5974;42.710;27.258;2023-08-01T12:37:36;99367.25;;;32.67;54.73
12349;BME280;5974;42.710;27.258;2023-08-01T12:40:06;99375.63;;;32.10;54.35
12349;BME280;5974;42.710;27.258;2023-08-01T12:42:33;99365.69;;;32.60;53.03
12349;BME280;5974;42.710;27.258;2023-08-01T12:45:00;99371.63;;;32.44;54.24
12349;BME280;5974;42.710;27.258;2023-08-01T12:47:27;99367.34;;;32.36;54.38
12349;BME280;5974;42.710;27.258;2023-08-01T12:49:54;99373.88;;;32.96;54.04
12349;BME280;5974;42.710;27.258;2023-08-01T12:52:24;99368.00;;;32.56;55.92
12349;BME280;5974;42.710;27.258;2023-08-01T12:54:51;99373.41;;;32.81;55.22
12349;BME280;5974;42.710;27.258;2023-08-01T12:57:19;99372.22;;;32.70;55.08
12349;BME280;5974;42.710;27.258;2023-08-01T12:59:46;99361.25;;;32.65;55.40